AFR997 LFPG-KBOS
Flight info
| Callsign | AFR997 |
|---|---|
| Flight time | N/A |
| Altitude | 34000 |
| Route | ELCOB UT300 SENLO DCT JSY DCT LIZAD DCT ARKIL DCT UNLID DCT LIMRI/M083F360 NATF TUDEP/N0467F360 DCT EBONY DCT AJJAY OOSHN5 |
| Aircraft | B77W/H-SDE1E2E3FGHIJ2J3J4J5M1RWXY/LB1D1 |
Departure
| Time | 2026-05-05 13:43 |
|---|---|
| Airport | Charles de Gaulle International Airport (LFPG) |
Arrival
| Time | N/A |
|---|---|
| Airport | Boston Logan International Airport (KBOS) |
| Time | Latitude | Longitude | Altitude | Speed | Heading |
|---|---|---|---|---|---|
| 2026-05-05 13:14 | 49.00117 | 2.57527 | 364 ft | 0 kts | 359° |
| 2026-05-05 13:15 | 49.00123 | 2.57526 | 364 ft | 2 kts | 359° |
| 2026-05-05 13:28 | 49.00121 | 2.57526 | 359 ft | 2 kts | 359° |
| 2026-05-05 13:28 | 49.00105 | 2.57527 | 362 ft | 2 kts | 359° |
| 2026-05-05 13:28 | 49.00094 | 2.57527 | 359 ft | 0 kts | 359° |
| 2026-05-05 13:29 | 49.00083 | 2.57528 | 359 ft | 2 kts | 358° |
| 2026-05-05 13:29 | 49.00066 | 2.57529 | 359 ft | 2 kts | 356° |
| 2026-05-05 13:29 | 49.00049 | 2.57528 | 359 ft | 2 kts | 91° |
| 2026-05-05 13:30 | 49.00047 | 2.57510 | 368 ft | 1 kts | 104° |
| 2026-05-05 13:30 | 49.00049 | 2.57505 | 368 ft | 0 kts | 86° |
| 2026-05-05 13:34 | 49.00050 | 2.57526 | 359 ft | 5 kts | 85° |
| 2026-05-05 13:34 | 49.00055 | 2.57614 | 361 ft | 9 kts | 85° |
| 2026-05-05 13:35 | 49.00061 | 2.57714 | 366 ft | 9 kts | 85° |
| 2026-05-05 13:35 | 49.00066 | 2.57813 | 364 ft | 9 kts | 85° |
| 2026-05-05 13:35 | 49.00071 | 2.57913 | 359 ft | 9 kts | 85° |
| 2026-05-05 13:35 | 49.00077 | 2.58012 | 363 ft | 9 kts | 85° |
| 2026-05-05 13:36 | 49.00083 | 2.58112 | 362 ft | 9 kts | 85° |
| 2026-05-05 13:36 | 49.00089 | 2.58211 | 366 ft | 9 kts | 85° |
| 2026-05-05 13:36 | 49.00079 | 2.58306 | 365 ft | 9 kts | 131° |
| 2026-05-05 13:36 | 49.00020 | 2.58297 | 366 ft | 10 kts | 225° |
| 2026-05-05 13:37 | 49.00004 | 2.58198 | 365 ft | 10 kts | 266° |
| 2026-05-05 13:37 | 48.99999 | 2.58092 | 365 ft | 10 kts | 266° |
| 2026-05-05 13:37 | 48.99995 | 2.57987 | 362 ft | 10 kts | 265° |
| 2026-05-05 13:37 | 48.99989 | 2.57882 | 359 ft | 10 kts | 265° |
| 2026-05-05 13:38 | 48.99982 | 2.57758 | 362 ft | 14 kts | 265° |
| 2026-05-05 13:38 | 48.99972 | 2.57592 | 363 ft | 18 kts | 265° |
| 2026-05-05 13:38 | 48.99961 | 2.57396 | 362 ft | 19 kts | 265° |
| 2026-05-05 13:38 | 48.99952 | 2.57198 | 363 ft | 19 kts | 265° |
| 2026-05-05 13:39 | 48.99940 | 2.57000 | 361 ft | 19 kts | 265° |
| 2026-05-05 13:39 | 48.99930 | 2.56801 | 366 ft | 19 kts | 265° |
| 2026-05-05 13:39 | 48.99918 | 2.56589 | 365 ft | 21 kts | 265° |
| 2026-05-05 13:39 | 48.99906 | 2.56361 | 360 ft | 22 kts | 265° |
| 2026-05-05 13:40 | 48.99894 | 2.56118 | 359 ft | 23 kts | 265° |
| 2026-05-05 13:40 | 48.99895 | 2.55913 | 360 ft | 16 kts | 284° |
| 2026-05-05 13:40 | 48.99874 | 2.55804 | 368 ft | 9 kts | 197° |
| 2026-05-05 13:40 | 48.99805 | 2.55804 | 365 ft | 11 kts | 178° |
| 2026-05-05 13:41 | 48.99733 | 2.55811 | 360 ft | 10 kts | 175° |
| 2026-05-05 13:41 | 48.99725 | 2.55812 | 361 ft | 0 kts | 175° |
| 2026-05-05 13:42 | 48.99717 | 2.55813 | 363 ft | 5 kts | 175° |
| 2026-05-05 13:42 | 48.99654 | 2.55820 | 360 ft | 10 kts | 176° |
| 2026-05-05 13:42 | 48.99599 | 2.55865 | 367 ft | 10 kts | 105° |
| 2026-05-05 13:43 | 48.99628 | 2.56310 | 368 ft | 91 kts | 85° |
| 2026-05-05 13:43 | 48.99705 | 2.57808 | 380 ft | 187 kts | 82° |
| 2026-05-05 13:43 | 48.99844 | 2.59967 | 1099 ft | 223 kts | 82° |
| 2026-05-05 13:43 | 48.99985 | 2.62288 | 2651 ft | 227 kts | 83° |
| 2026-05-05 13:44 | 48.99995 | 2.64871 | 3131 ft | 251 kts | 87° |
| 2026-05-05 13:44 | 49.00122 | 2.67511 | 3997 ft | 251 kts | 83° |
| 2026-05-05 13:44 | 49.00298 | 2.70168 | 4677 ft | 254 kts | 83° |
| 2026-05-05 13:44 | 49.00470 | 2.72869 | 5409 ft | 257 kts | 82° |
| 2026-05-05 13:45 | 49.00563 | 2.75584 | 6111 ft | 262 kts | 88° |
| 2026-05-05 13:45 | 49.00722 | 2.78358 | 6671 ft | 263 kts | 78° |
| 2026-05-05 13:45 | 49.00957 | 2.81137 | 7232 ft | 268 kts | 94° |
| 2026-05-05 13:45 | 49.00418 | 2.83855 | 7840 ft | 269 kts | 109° |
| 2026-05-05 13:46 | 48.99848 | 2.86604 | 8459 ft | 277 kts | 101° |
| 2026-05-05 13:46 | 48.99492 | 2.89509 | 9063 ft | 277 kts | 97° |
| 2026-05-05 13:46 | 48.99193 | 2.92387 | 9718 ft | 275 kts | 97° |
| 2026-05-05 13:46 | 48.98899 | 2.95233 | 10482 ft | 277 kts | 98° |
| 2026-05-05 13:47 | 48.98368 | 2.98054 | 11070 ft | 282 kts | 119° |
| 2026-05-05 13:47 | 48.97030 | 3.00243 | 11752 ft | 289 kts | 146° |
| 2026-05-05 13:47 | 48.95157 | 3.01415 | 12433 ft | 298 kts | 169° |
| 2026-05-05 13:47 | 48.93070 | 3.01355 | 13126 ft | 305 kts | 193° |
| 2026-05-05 13:48 | 48.91151 | 2.99979 | 13823 ft | 309 kts | 218° |
| 2026-05-05 13:48 | 48.89760 | 2.97473 | 14478 ft | 316 kts | 240° |
| 2026-05-05 13:48 | 48.89173 | 2.95433 | 14890 ft | 320 kts | 250° |